createdAt,value
2023-02-21T00:00:37.864Z,22.61
2023-02-21T00:01:37.871Z,22.63
2023-02-21T00:02:37.807Z,22.65
2023-02-21T00:03:37.782Z,22.65
2023-02-21T00:04:37.788Z,22.68
2023-02-21T00:05:37.868Z,22.70
2023-02-21T00:06:37.725Z,22.70
2023-02-21T00:07:37.731Z,22.73
2023-02-21T00:08:37.743Z,22.76
2023-02-21T00:09:37.757Z,22.77
2023-02-21T00:10:37.807Z,22.74
2023-02-21T00:11:37.730Z,22.73
2023-02-21T00:12:38.344Z,22.71
2023-02-21T00:13:37.683Z,22.70
2023-02-21T00:14:37.688Z,22.63
2023-02-21T00:15:37.688Z,22.61
2023-02-21T00:16:38.429Z,22.61
2023-02-21T00:17:37.667Z,22.59
2023-02-21T00:18:37.964Z,22.59
2023-02-21T00:19:37.663Z,22.62
2023-02-21T00:20:37.624Z,22.67
2023-02-21T00:21:37.684Z,22.70
2023-02-21T00:22:37.633Z,22.73
2023-02-21T00:23:37.625Z,22.76
2023-02-21T00:24:37.605Z,22.77
2023-02-21T00:25:38.115Z,22.78
2023-02-21T00:26:37.565Z,22.78
2023-02-21T00:27:37.765Z,22.80
2023-02-21T00:28:37.624Z,22.77
2023-02-21T00:29:37.564Z,22.76
2023-02-21T00:30:37.711Z,22.76
2023-02-21T00:31:37.541Z,22.77
2023-02-21T00:32:37.613Z,22.77
2023-02-21T00:33:37.601Z,22.77
2023-02-21T00:34:37.618Z,22.78
2023-02-21T00:35:37.488Z,22.78
2023-02-21T00:36:37.421Z,22.80
2023-02-21T00:37:37.437Z,22.80
2023-02-21T00:38:37.428Z,22.83
2023-02-21T00:39:37.408Z,22.84
2023-02-21T00:40:37.445Z,22.86
2023-02-21T00:41:37.396Z,22.83
2023-02-21T00:42:37.423Z,22.83
2023-02-21T00:43:37.436Z,22.83
2023-02-21T00:44:37.372Z,22.80
2023-02-21T00:45:37.330Z,22.80
2023-02-21T00:46:37.353Z,22.77
2023-02-21T00:47:37.440Z,22.77
2023-02-21T00:48:37.365Z,22.77
2023-02-21T00:49:37.349Z,22.76
2023-02-21T00:50:37.320Z,22.76
2023-02-21T00:51:37.264Z,22.74
2023-02-21T00:52:37.388Z,22.74
2023-02-21T00:53:37.291Z,22.74
2023-02-21T00:54:37.283Z,22.74
2023-02-21T00:55:37.318Z,22.76
2023-02-21T00:56:37.249Z,22.77
2023-02-21T00:57:37.207Z,22.77
2023-02-21T00:58:37.221Z,22.80
2023-02-21T00:59:37.224Z,22.81
2023-02-21T01:00:37.247Z,22.83
2023-02-21T01:01:37.231Z,22.84
2023-02-21T01:02:37.233Z,22.86
2023-02-21T01:03:37.158Z,22.86
2023-02-21T01:04:37.167Z,22.83
2023-02-21T01:05:37.158Z,22.81
2023-02-21T01:06:37.110Z,22.81
2023-02-21T01:07:37.120Z,22.81
2023-02-21T01:08:37.126Z,22.78
2023-02-21T01:09:37.139Z,22.78
2023-02-21T01:10:37.087Z,22.78
2023-02-21T01:11:37.127Z,22.78
2023-02-21T01:12:37.052Z,22.78
2023-02-21T01:13:37.161Z,22.78
2023-02-21T01:14:37.949Z,22.78
2023-02-21T01:15:37.163Z,22.78
2023-02-21T01:16:37.080Z,22.78
2023-02-21T01:17:37.034Z,22.77
2023-02-21T01:18:37.058Z,22.78
2023-02-21T01:19:38.081Z,22.76
2023-02-21T01:20:37.070Z,22.74
2023-02-21T01:21:36.987Z,22.73
2023-02-21T01:22:36.993Z,22.71
2023-02-21T01:23:36.923Z,22.67
2023-02-21T01:24:36.991Z,22.61
2023-02-21T01:25:37.530Z,22.59
2023-02-21T01:26:37.031Z,22.59
2023-02-21T01:27:36.910Z,22.61
2023-02-21T01:28:37.016Z,22.61
2023-02-21T01:29:36.932Z,22.61
2023-02-21T01:30:37.026Z,22.61
2023-02-21T01:31:36.977Z,22.59
2023-02-21T01:32:36.861Z,22.58
2023-02-21T01:33:36.849Z,22.59
2023-02-21T01:34:36.891Z,22.59
2023-02-21T01:35:36.808Z,22.61
2023-02-21T01:36:36.977Z,22.61
2023-02-21T01:37:36.820Z,22.63
2023-02-21T01:38:36.805Z,22.63
2023-02-21T01:39:36.791Z,22.65
2023-02-21T01:40:36.733Z,22.65
2023-02-21T01:41:36.805Z,22.63
2023-02-21T01:42:37.016Z,22.67
2023-02-21T01:43:36.750Z,22.68
2023-02-21T01:44:36.757Z,22.70
2023-02-21T01:45:36.765Z,22.73
2023-02-21T01:46:36.681Z,22.76
2023-02-21T01:47:36.679Z,22.78
2023-02-21T01:48:37.410Z,22.78
2023-02-21T01:49:36.705Z,22.77
2023-02-21T01:50:36.697Z,22.76
2023-02-21T01:51:36.797Z,22.74
2023-02-21T01:52:36.620Z,22.70
2023-02-21T01:53:36.681Z,22.68
2023-02-21T01:54:36.695Z,22.67
2023-02-21T01:55:37.009Z,22.67
2023-02-21T01:56:36.599Z,22.70
2023-02-21T01:57:36.680Z,22.70
2023-02-21T01:58:36.613Z,22.71
2023-02-21T01:59:36.584Z,22.71
2023-02-21T02:00:36.659Z,22.74
2023-02-21T02:01:36.599Z,22.76
2023-02-21T02:02:36.512Z,22.77
2023-02-21T02:03:36.511Z,22.81
2023-02-21T02:04:36.535Z,22.83
2023-02-21T02:05:36.562Z,22.81
2023-02-21T02:06:36.513Z,22.78
2023-02-21T02:07:36.509Z,22.78
2023-02-21T02:08:36.479Z,22.77
2023-02-21T02:09:36.488Z,22.76
2023-02-21T02:10:36.460Z,22.77
2023-02-21T02:11:36.492Z,22.78
2023-02-21T02:12:36.433Z,22.76
2023-02-21T02:13:36.442Z,22.76
2023-02-21T02:14:36.447Z,22.76
2023-02-21T02:15:36.483Z,22.76
2023-02-21T02:16:36.455Z,22.74
2023-02-21T02:17:36.404Z,22.71
2023-02-21T02:18:36.374Z,22.68
2023-02-21T02:19:36.402Z,22.68
2023-02-21T02:20:36.319Z,22.65
2023-02-21T02:21:36.336Z,22.65
2023-02-21T02:22:36.401Z,22.67
2023-02-21T02:23:36.379Z,22.68
2023-02-21T02:24:36.313Z,22.68
2023-02-21T02:25:36.312Z,22.70
2023-02-21T02:26:36.291Z,22.71
2023-02-21T02:27:36.261Z,22.73
2023-02-21T02:28:36.317Z,22.71
2023-02-21T02:29:36.215Z,22.70
2023-02-21T02:30:36.286Z,22.71
2023-02-21T02:31:36.339Z,22.71
2023-02-21T02:32:36.259Z,22.71
2023-02-21T02:33:36.209Z,22.71
2023-02-21T02:34:36.259Z,22.70
2023-02-21T02:35:36.153Z,22.71
2023-02-21T02:36:36.224Z,22.71
2023-02-21T02:37:36.167Z,22.70
2023-02-21T02:38:36.202Z,22.67
2023-02-21T02:39:36.137Z,22.65
2023-02-21T02:40:36.498Z,22.65
2023-02-21T02:41:36.190Z,22.61
2023-02-21T02:42:36.129Z,22.61
2023-02-21T02:43:36.107Z,22.59
2023-02-21T02:44:36.130Z,22.59
2023-02-21T02:45:36.381Z,22.61
2023-02-21T02:46:36.242Z,22.62
2023-02-21T02:47:36.050Z,22.62
2023-02-21T02:48:36.064Z,22.65
2023-02-21T02:49:37.121Z,22.63
2023-02-21T02:50:37.099Z,22.61
2023-02-21T02:51:36.186Z,22.61
2023-02-21T02:52:36.188Z,22.61
2023-02-21T02:53:37.114Z,22.59
2023-02-21T02:54:37.126Z,22.58
2023-02-21T02:55:36.102Z,22.58
2023-02-21T02:56:36.141Z,22.59
2023-02-21T02:57:36.054Z,22.59
2023-02-21T02:58:36.574Z,22.58
2023-02-21T02:59:36.072Z,22.58
2023-02-21T03:00:36.549Z,22.49
2023-02-21T03:01:36.635Z,22.44
2023-02-21T03:02:36.081Z,22.41
2023-02-21T03:03:36.641Z,22.38
2023-02-21T03:04:36.705Z,22.37
2023-02-21T03:05:36.587Z,22.38
2023-02-21T03:06:36.005Z,22.38
2023-02-21T03:07:36.633Z,22.40
2023-02-21T03:08:36.628Z,22.41
2023-02-21T03:09:35.924Z,22.43
2023-02-21T03:10:56.817Z,22.44
2023-02-21T03:11:35.826Z,22.44
2023-02-21T03:12:35.831Z,22.41
2023-02-21T03:13:36.019Z,22.38
2023-02-21T03:14:36.460Z,22.36
2023-02-21T03:15:35.773Z,22.33
2023-02-21T03:16:35.756Z,22.36
2023-02-21T03:17:35.704Z,22.37
2023-02-21T03:18:35.768Z,22.37
2023-02-21T03:19:35.999Z,22.38
2023-02-21T03:20:35.773Z,22.38
2023-02-21T03:21:35.698Z,22.40
2023-02-21T03:22:35.698Z,22.37
2023-02-21T03:23:35.705Z,22.37
2023-02-21T03:24:35.750Z,22.31
2023-02-21T03:25:35.660Z,22.30
2023-02-21T03:26:35.664Z,22.25
2023-02-21T03:27:35.643Z,22.19
2023-02-21T03:28:35.628Z,22.16
2023-02-21T03:29:35.583Z,22.14
2023-02-21T03:30:35.698Z,22.12
2023-02-21T03:31:35.746Z,22.12
2023-02-21T03:32:35.608Z,22.14
2023-02-21T03:33:35.561Z,22.15
2023-02-21T03:34:35.511Z,22.10
2023-02-21T03:35:35.521Z,22.08
2023-02-21T03:36:35.533Z,22.10
2023-02-21T03:37:35.595Z,22.10
2023-02-21T03:38:35.542Z,22.12
2023-02-21T03:39:35.548Z,22.10
2023-02-21T03:40:35.459Z,22.12
2023-02-21T03:41:35.457Z,22.12
2023-02-21T03:42:35.464Z,22.14
2023-02-21T03:43:35.474Z,22.15
2023-02-21T03:44:35.488Z,22.12
2023-02-21T03:45:35.453Z,22.12
2023-02-21T03:46:35.401Z,22.14
2023-02-21T03:47:35.394Z,22.15
2023-02-21T03:48:35.402Z,22.12
2023-02-21T03:49:35.415Z,22.15
2023-02-21T03:50:35.475Z,22.16
2023-02-21T03:51:35.333Z,22.18
2023-02-21T03:52:35.319Z,22.18
2023-02-21T03:53:35.339Z,22.18
2023-02-21T03:54:35.337Z,22.15
2023-02-21T03:55:35.355Z,22.14
2023-02-21T03:56:41.902Z,22.14
2023-02-21T03:57:35.332Z,22.12
2023-02-21T03:58:36.993Z,22.07
2023-02-21T03:59:35.282Z,22.06
2023-02-21T04:00:35.389Z,22.03
2023-02-21T04:01:35.394Z,22.03
2023-02-21T04:02:35.276Z,22.00
2023-02-21T04:03:35.277Z,21.97
2023-02-21T04:04:35.220Z,22.01
2023-02-21T04:05:35.285Z,21.97
2023-02-21T04:06:35.600Z,21.92
2023-02-21T04:07:35.212Z,21.92
2023-02-21T04:08:35.197Z,21.94
2023-02-21T04:09:35.222Z,21.96
2023-02-21T04:10:40.629Z,21.99
2023-02-21T04:11:35.223Z,22.00
2023-02-21T04:12:35.551Z,22.01
2023-02-21T04:13:35.147Z,22.01
2023-02-21T04:14:35.113Z,22.00
2023-02-21T04:15:35.143Z,21.99
2023-02-21T04:16:35.170Z,22.00
2023-02-21T04:17:35.107Z,22.00
2023-02-21T04:18:37.597Z,22.00
2023-02-21T04:19:35.088Z,21.96
2023-02-21T04:20:35.028Z,21.92
2023-02-21T04:21:35.197Z,21.92
2023-02-21T04:22:35.061Z,21.96
2023-02-21T04:23:35.070Z,21.99
2023-02-21T04:24:35.050Z,22.01
2023-02-21T04:25:35.026Z,21.97
2023-02-21T04:26:35.120Z,21.97
2023-02-21T04:27:35.028Z,21.96
2023-02-21T04:28:34.975Z,21.94
2023-02-21T04:29:35.046Z,21.91
2023-02-21T04:30:35.102Z,21.92
2023-02-21T04:31:35.099Z,21.91
2023-02-21T04:32:35.016Z,21.92
2023-02-21T04:33:34.966Z,21.94
2023-02-21T04:34:34.966Z,21.99
2023-02-21T04:35:34.983Z,21.99
2023-02-21T04:36:34.928Z,21.99
2023-02-21T04:37:34.899Z,22.00
2023-02-21T04:38:34.916Z,22.03
2023-02-21T04:39:34.905Z,22.03
2023-02-21T04:40:34.908Z,22.01
2023-02-21T04:41:34.962Z,22.00
2023-02-21T04:42:34.859Z,22.00
2023-02-21T04:43:34.853Z,21.94
2023-02-21T04:44:34.843Z,21.92
2023-02-21T04:45:34.883Z,21.92
2023-02-21T04:46:34.852Z,21.91
2023-02-21T04:47:34.796Z,21.91
2023-02-21T04:48:34.768Z,21.92
2023-02-21T04:49:34.785Z,21.96
2023-02-21T04:50:34.788Z,21.94
2023-02-21T04:51:34.790Z,21.94
2023-02-21T04:52:34.804Z,21.92
2023-02-21T04:53:34.804Z,21.96
2023-02-21T04:54:34.682Z,21.99
2023-02-21T04:55:34.712Z,22.00
2023-02-21T04:56:34.736Z,22.01
2023-02-21T04:57:34.732Z,22.04
2023-02-21T04:58:44.784Z,22.04
2023-02-21T04:59:34.634Z,22.04
2023-02-21T05:00:35.039Z,22.04
2023-02-21T05:01:34.739Z,22.06
2023-02-21T05:02:34.664Z,22.06
2023-02-21T05:03:35.098Z,22.04
2023-02-21T05:04:34.698Z,21.99
2023-02-21T05:05:34.575Z,21.96
2023-02-21T05:06:34.591Z,21.96
2023-02-21T05:07:34.588Z,21.97
2023-02-21T05:08:34.552Z,21.97
2023-02-21T05:09:34.556Z,21.96
2023-02-21T05:10:45.099Z,21.94
2023-02-21T05:11:34.611Z,21.94
2023-02-21T05:12:34.489Z,21.92
2023-02-21T05:13:34.530Z,21.89
2023-02-21T05:14:34.545Z,21.89
2023-02-21T05:15:34.543Z,21.85
2023-02-21T05:16:34.592Z,21.84
2023-02-21T05:17:35.230Z,21.80
2023-02-21T05:18:34.528Z,21.75
2023-02-21T05:19:34.476Z,21.75
2023-02-21T05:20:34.429Z,21.74
2023-02-21T05:21:34.494Z,21.75
2023-02-21T05:22:34.487Z,21.77
2023-02-21T05:23:34.492Z,21.80
2023-02-21T05:24:34.407Z,21.81
2023-02-21T05:25:34.395Z,21.84
2023-02-21T05:26:34.367Z,21.85
2023-02-21T05:27:34.422Z,21.88
2023-02-21T05:28:34.425Z,21.89
2023-02-21T05:29:34.436Z,21.89
2023-02-21T05:30:34.452Z,21.91
2023-02-21T05:31:34.404Z,21.94
2023-02-21T05:32:34.357Z,21.96
2023-02-21T05:33:34.314Z,21.99
2023-02-21T05:34:34.317Z,21.99
2023-02-21T05:35:34.362Z,22.00
2023-02-21T05:36:34.275Z,21.99
2023-02-21T05:37:34.283Z,21.99
2023-02-21T05:38:34.241Z,21.94
2023-02-21T05:39:34.393Z,21.91
2023-02-21T05:40:34.299Z,21.88
2023-02-21T05:41:34.317Z,21.81
2023-02-21T05:42:34.206Z,21.77
2023-02-21T05:43:34.241Z,21.77
2023-02-21T05:44:34.180Z,21.75
2023-02-21T05:45:34.231Z,21.78
2023-02-21T05:46:34.242Z,21.81
2023-02-21T05:47:34.508Z,21.85
2023-02-21T05:48:34.152Z,21.84
2023-02-21T05:49:34.115Z,21.89
2023-02-21T05:50:34.159Z,21.94
2023-02-21T05:51:34.125Z,21.96
2023-02-21T05:52:34.171Z,21.97
2023-02-21T05:53:34.138Z,22.00
2023-02-21T05:54:34.092Z,21.97
2023-02-21T05:55:34.099Z,21.97
2023-02-21T05:56:34.140Z,21.97
2023-02-21T05:57:34.117Z,21.91
2023-02-21T05:58:34.007Z,21.85
2023-02-21T05:59:34.073Z,21.84
2023-02-21T06:00:34.118Z,21.81
2023-02-21T06:01:34.027Z,21.78
2023-02-21T06:02:34.140Z,21.77
2023-02-21T06:03:34.074Z,21.75
2023-02-21T06:04:34.048Z,21.70
2023-02-21T06:05:34.264Z,21.72
2023-02-21T06:06:33.955Z,21.69
2023-02-21T06:07:33.970Z,21.65
2023-02-21T06:08:33.970Z,21.62
2023-02-21T06:09:34.509Z,21.63
2023-02-21T06:10:33.997Z,21.62
2023-02-21T06:11:34.001Z,21.62
2023-02-21T06:12:34.002Z,21.63
2023-02-21T06:13:34.831Z,21.65
2023-02-21T06:14:34.275Z,21.65
2023-02-21T06:15:33.958Z,21.58
2023-02-21T06:16:34.929Z,21.53
2023-02-21T06:17:34.869Z,21.51
2023-02-21T06:18:33.846Z,21.50
2023-02-21T06:19:33.965Z,21.50
2023-02-21T06:20:33.965Z,21.48
2023-02-21T06:21:35.308Z,21.45
2023-02-21T06:22:35.403Z,21.44
2023-02-21T06:23:33.944Z,21.43
2023-02-21T06:24:33.886Z,21.43
2023-02-21T06:25:34.822Z,21.43
2023-02-21T06:26:34.170Z,21.44
2023-02-21T06:27:34.670Z,21.43
2023-02-21T06:28:33.766Z,21.41
2023-02-21T06:29:33.779Z,21.40
2023-02-21T06:30:33.736Z,21.38
2023-02-21T06:31:35.078Z,21.38
2023-02-21T06:32:33.786Z,21.33
2023-02-21T06:33:34.196Z,21.33
2023-02-21T06:34:34.341Z,21.30
2023-02-21T06:35:33.783Z,21.26
2023-02-21T06:36:35.329Z,21.23
2023-02-21T06:37:34.196Z,21.23
2023-02-21T06:38:33.637Z,21.26
2023-02-21T06:39:34.152Z,21.25
2023-02-21T06:40:33.694Z,21.28
2023-02-21T06:41:34.271Z,21.28
2023-02-21T06:42:33.807Z,21.28
2023-02-21T06:43:33.878Z,21.26
2023-02-21T06:44:34.084Z,21.28
2023-02-21T06:45:33.813Z,21.30
2023-02-21T06:46:34.259Z,21.32
2023-02-21T06:47:33.816Z,21.35
2023-02-21T06:48:34.321Z,21.33
2023-02-21T06:49:33.934Z,21.37
2023-02-21T06:50:33.613Z,21.40
2023-02-21T06:51:34.128Z,21.43
2023-02-21T06:52:34.240Z,21.43
2023-02-21T06:53:34.153Z,21.44
2023-02-21T06:54:34.246Z,21.43
2023-02-21T06:55:33.437Z,21.40
2023-02-21T06:56:33.461Z,21.41
2023-02-21T06:57:33.455Z,21.40
2023-02-21T06:58:33.487Z,21.40
2023-02-21T06:59:33.484Z,21.38
2023-02-21T07:00:33.494Z,21.37
2023-02-21T07:01:34.310Z,21.37
2023-02-21T07:02:33.404Z,21.35
2023-02-21T07:03:33.916Z,21.33
2023-02-21T07:04:33.456Z,21.32
2023-02-21T07:05:33.431Z,21.32
2023-02-21T07:06:33.763Z,21.35
2023-02-21T07:07:33.317Z,21.40
2023-02-21T07:08:34.358Z,21.43
2023-02-21T07:09:35.694Z,21.45
2023-02-21T07:10:35.290Z,21.47
2023-02-21T07:11:33.344Z,21.48
2023-02-21T07:12:33.376Z,21.44
2023-02-21T07:13:34.003Z,21.37
2023-02-21T07:14:33.274Z,21.33
2023-02-21T07:15:33.694Z,21.32
2023-02-21T07:16:33.287Z,21.32
2023-02-21T07:17:33.316Z,21.32
2023-02-21T07:18:33.285Z,21.32
2023-02-21T07:19:33.373Z,21.35
2023-02-21T07:20:33.212Z,21.37
2023-02-21T07:21:33.647Z,21.38
2023-02-21T07:22:33.275Z,21.38
2023-02-21T07:23:33.394Z,21.41
2023-02-21T07:24:35.183Z,21.43
2023-02-21T07:25:33.221Z,21.47
2023-02-21T07:26:33.678Z,21.48
2023-02-21T07:27:34.181Z,21.51
2023-02-21T07:28:33.165Z,21.56
2023-02-21T07:29:33.289Z,21.58
2023-02-21T07:30:33.162Z,21.60
2023-02-21T07:31:33.320Z,21.63
2023-02-21T07:32:33.090Z,21.63
2023-02-21T07:33:33.914Z,21.66
2023-02-21T07:34:33.102Z,21.69
2023-02-21T07:35:33.232Z,21.69
2023-02-21T07:36:34.046Z,21.72
2023-02-21T07:37:33.352Z,21.74
2023-02-21T07:38:33.460Z,21.75
2023-02-21T07:39:34.422Z,21.74
2023-02-21T07:40:33.151Z,21.72
2023-02-21T07:41:33.634Z,21.74
2023-02-21T07:42:33.175Z,21.72
2023-02-21T07:43:33.181Z,21.74
2023-02-21T07:44:33.181Z,21.74
2023-02-21T07:45:33.133Z,21.75
2023-02-21T07:46:32.908Z,21.74
2023-02-21T07:47:32.828Z,21.74
2023-02-21T07:48:32.812Z,21.72
2023-02-21T07:49:32.851Z,21.72
2023-02-21T07:50:32.799Z,21.70
2023-02-21T07:51:32.861Z,21.72
2023-02-21T07:52:32.770Z,21.74
2023-02-21T07:53:32.770Z,21.72
2023-02-21T07:54:32.755Z,21.72
2023-02-21T07:55:32.762Z,21.72
2023-02-21T07:56:32.733Z,21.72
2023-02-21T07:57:32.869Z,21.72
2023-02-21T07:58:32.731Z,21.75
2023-02-21T07:59:32.690Z,21.75
2023-02-21T08:00:32.715Z,21.75
2023-02-21T08:01:32.718Z,21.74
2023-02-21T08:02:32.672Z,21.72
2023-02-21T08:03:32.703Z,21.70
2023-02-21T08:04:32.709Z,21.69
2023-02-21T08:05:32.652Z,21.66
2023-02-21T08:06:32.699Z,21.62
2023-02-21T08:07:32.750Z,21.59
2023-02-21T08:08:32.718Z,21.51
2023-02-21T08:09:32.681Z,21.44
2023-02-21T08:10:32.585Z,21.41
2023-02-21T08:11:32.629Z,21.41
2023-02-21T08:12:32.638Z,21.40
2023-02-21T08:13:32.647Z,21.40
2023-02-21T08:14:33.365Z,21.41
2023-02-21T08:15:32.659Z,21.41
2023-02-21T08:16:34.740Z,21.43
2023-02-21T08:17:32.554Z,21.45
2023-02-21T08:18:32.591Z,21.47
2023-02-21T08:19:32.539Z,21.47
2023-02-21T08:20:32.494Z,21.50
2023-02-21T08:21:32.524Z,21.50
2023-02-21T08:22:32.493Z,21.50
2023-02-21T08:23:32.486Z,21.48
2023-02-21T08:24:32.508Z,21.48
2023-02-21T08:25:32.449Z,21.50
2023-02-21T08:26:32.457Z,21.51
2023-02-21T08:27:32.460Z,21.50
2023-02-21T08:28:32.359Z,21.53
2023-02-21T08:29:32.375Z,21.50
2023-02-21T08:30:32.408Z,21.50
2023-02-21T08:31:32.391Z,21.48
2023-02-21T08:32:32.342Z,21.48
2023-02-21T08:33:32.360Z,21.43
2023-02-21T08:34:32.309Z,21.43
2023-02-21T08:35:32.274Z,21.43
2023-02-21T08:36:32.221Z,21.41
2023-02-21T08:37:32.236Z,21.41
2023-02-21T08:38:32.230Z,21.40
2023-02-21T08:39:32.540Z,21.40
2023-02-21T08:40:32.264Z,21.43
2023-02-21T08:41:32.254Z,21.45
2023-02-21T08:42:32.320Z,21.45
2023-02-21T08:43:32.279Z,21.45
2023-02-21T08:44:32.268Z,21.47
2023-02-21T08:45:32.280Z,21.48
2023-02-21T08:46:32.233Z,21.47
2023-02-21T08:47:32.156Z,21.48
2023-02-21T08:48:32.211Z,21.48
2023-02-21T08:49:32.206Z,21.50
2023-02-21T08:50:32.180Z,21.48
2023-02-21T08:51:32.180Z,21.44
2023-02-21T08:52:32.196Z,21.43
2023-02-21T08:53:32.088Z,21.45
2023-02-21T08:54:32.094Z,21.45
2023-02-21T08:55:32.057Z,21.45
2023-02-21T08:56:32.131Z,21.47
2023-02-21T08:57:32.068Z,21.48
2023-02-21T08:58:32.026Z,21.48
2023-02-21T08:59:32.147Z,21.50
2023-02-21T09:00:31.986Z,21.53
2023-02-21T09:01:32.064Z,21.50
2023-02-21T09:02:31.994Z,21.51
2023-02-21T09:03:32.056Z,21.51
2023-02-21T09:04:31.958Z,21.53
2023-02-21T09:05:31.914Z,21.53
2023-02-21T09:06:31.930Z,21.53
2023-02-21T09:07:31.917Z,21.51
2023-02-21T09:08:31.929Z,21.50
2023-02-21T09:09:31.935Z,21.50
2023-02-21T09:10:31.979Z,21.48
2023-02-21T09:11:31.920Z,21.51
2023-02-21T09:12:31.860Z,21.50
2023-02-21T09:13:31.962Z,21.50
2023-02-21T09:14:31.870Z,21.48
2023-02-21T09:15:31.893Z,21.50
2023-02-21T09:16:31.858Z,21.48
2023-02-21T09:17:31.857Z,21.48
2023-02-21T09:18:31.785Z,21.48
2023-02-21T09:19:31.800Z,21.51
2023-02-21T09:20:31.806Z,21.50
2023-02-21T09:21:31.761Z,21.48
2023-02-21T09:22:31.819Z,21.48
2023-02-21T09:23:32.823Z,21.48
2023-02-21T09:24:31.735Z,21.44
2023-02-21T09:25:31.807Z,21.44
2023-02-21T09:26:31.797Z,21.40
2023-02-21T09:27:31.746Z,21.40
2023-02-21T09:28:31.719Z,21.35
2023-02-21T09:29:45.069Z,21.37
2023-02-21T09:30:31.780Z,21.35
2023-02-21T09:31:31.822Z,21.32
2023-02-21T09:32:31.694Z,21.30
2023-02-21T09:33:31.741Z,21.32
2023-02-21T09:34:31.662Z,21.32
2023-02-21T09:35:31.659Z,21.32
2023-02-21T09:36:31.655Z,21.33
2023-02-21T09:37:31.676Z,21.37
2023-02-21T09:38:31.591Z,21.38
2023-02-21T09:39:31.591Z,21.38
2023-02-21T09:40:31.610Z,21.41
2023-02-21T09:41:31.594Z,21.44
2023-02-21T09:42:31.643Z,21.44
2023-02-21T09:43:31.573Z,21.45
2023-02-21T09:44:31.538Z,21.47
2023-02-21T09:45:31.580Z,21.47
2023-02-21T09:46:31.526Z,21.47
2023-02-21T09:47:31.574Z,21.47
2023-02-21T09:48:31.492Z,21.47
2023-02-21T09:49:31.556Z,21.48
2023-02-21T09:50:31.458Z,21.50
2023-02-21T09:51:31.468Z,21.50
2023-02-21T09:52:31.465Z,21.51
2023-02-21T09:53:31.528Z,21.53
2023-02-21T09:54:31.477Z,21.56
2023-02-21T09:55:31.589Z,21.58
2023-02-21T09:56:31.418Z,21.62
2023-02-21T09:57:31.417Z,21.66
2023-02-21T09:58:31.445Z,21.68
2023-02-21T09:59:31.447Z,21.66
2023-02-21T10:00:31.447Z,21.65
2023-02-21T10:01:31.670Z,21.63
2023-02-21T10:02:31.435Z,21.62
2023-02-21T10:03:31.371Z,21.62
2023-02-21T10:04:31.369Z,21.62
2023-02-21T10:05:31.349Z,21.65
2023-02-21T10:06:31.399Z,21.68
2023-02-21T10:07:31.407Z,21.72
2023-02-21T10:08:31.306Z,21.75
2023-02-21T10:09:31.306Z,21.78
2023-02-21T10:10:31.317Z,21.81
2023-02-21T10:11:31.332Z,21.81
2023-02-21T10:12:31.297Z,21.83
2023-02-21T10:13:31.345Z,21.81
2023-02-21T10:14:31.206Z,21.80
2023-02-21T10:15:31.207Z,21.80
2023-02-21T10:16:31.471Z,21.80
2023-02-21T10:17:31.232Z,21.83
2023-02-21T10:18:31.228Z,21.84
2023-02-21T10:19:31.289Z,21.88
2023-02-21T10:20:31.202Z,21.88
2023-02-21T10:21:31.183Z,21.91
2023-02-21T10:22:31.283Z,21.94
2023-02-21T10:23:32.587Z,21.97
2023-02-21T10:24:31.206Z,21.96
2023-02-21T10:25:31.402Z,21.91
2023-02-21T10:26:31.331Z,21.88
2023-02-21T10:27:31.335Z,21.91
2023-02-21T10:28:31.133Z,21.91
2023-02-21T10:29:31.125Z,21.92
2023-02-21T10:30:31.199Z,21.97
2023-02-21T10:31:31.147Z,21.97
2023-02-21T10:32:31.049Z,22.01
2023-02-21T10:33:31.270Z,22.04
2023-02-21T10:34:31.060Z,22.04
2023-02-21T10:35:31.085Z,22.06
2023-02-21T10:36:31.072Z,22.08
2023-02-21T10:37:31.023Z,22.08
2023-02-21T10:38:31.146Z,22.14
2023-02-21T10:39:31.010Z,22.14
2023-02-21T10:40:31.207Z,22.15
2023-02-21T10:41:31.010Z,22.18
2023-02-21T10:42:31.020Z,22.22
2023-02-21T10:43:30.917Z,22.25
2023-02-21T10:44:30.920Z,22.28
2023-02-21T10:45:31.138Z,22.30
2023-02-21T10:46:30.946Z,22.33
2023-02-21T10:47:30.949Z,22.34
2023-02-21T10:48:30.949Z,22.36
2023-02-21T10:49:30.852Z,22.37
2023-02-21T10:50:30.860Z,22.40
2023-02-21T10:51:31.032Z,22.40
2023-02-21T10:52:31.003Z,22.41
2023-02-21T10:53:30.935Z,22.41
2023-02-21T10:54:32.370Z,22.40
2023-02-21T10:55:33.458Z,22.40
2023-02-21T10:56:31.624Z,22.37
2023-02-21T10:57:30.806Z,22.40
2023-02-21T10:58:30.815Z,22.41
2023-02-21T10:59:30.788Z,22.43
2023-02-21T11:00:30.756Z,22.44
2023-02-21T11:01:30.758Z,22.49
2023-02-21T11:02:30.783Z,22.51
2023-02-21T11:03:30.864Z,22.47
2023-02-21T11:04:30.710Z,22.47
2023-02-21T11:05:30.751Z,22.46
2023-02-21T11:06:30.720Z,22.44
2023-02-21T11:07:30.603Z,22.44
2023-02-21T11:08:30.616Z,22.44
2023-02-21T11:09:31.188Z,22.44
2023-02-21T11:10:30.800Z,22.46
2023-02-21T11:11:30.690Z,22.47
2023-02-21T11:12:30.615Z,22.51
2023-02-21T11:13:30.562Z,22.52
2023-02-21T11:14:30.581Z,22.47
2023-02-21T11:15:30.852Z,22.44
2023-02-21T11:16:30.734Z,22.44
2023-02-21T11:17:45.181Z,22.40
2023-02-21T11:18:30.647Z,22.37
2023-02-21T11:19:30.550Z,22.38
2023-02-21T11:20:30.575Z,22.41
2023-02-21T11:21:30.566Z,22.41
2023-02-21T11:22:31.690Z,22.43
2023-02-21T11:23:30.717Z,22.44
2023-02-21T11:24:30.544Z,22.46
2023-02-21T11:25:30.482Z,22.47
2023-02-21T11:26:30.544Z,22.53
2023-02-21T11:27:30.564Z,22.59
2023-02-21T11:28:30.465Z,22.62
2023-02-21T11:29:30.521Z,22.61
2023-02-21T11:30:30.439Z,22.61
2023-02-21T11:31:30.528Z,22.65
2023-02-21T11:32:30.435Z,22.67
2023-02-21T11:33:30.432Z,22.73
2023-02-21T11:34:30.453Z,22.74
2023-02-21T11:35:30.456Z,22.78
2023-02-21T11:36:30.464Z,22.88
2023-02-21T11:37:30.360Z,22.96
2023-02-21T11:38:30.327Z,22.98
2023-02-21T11:39:30.376Z,23.01
2023-02-21T11:40:30.387Z,22.98
2023-02-21T11:41:30.355Z,22.93
2023-02-21T11:42:30.298Z,22.91
2023-02-21T11:43:30.244Z,22.93
2023-02-21T11:44:30.263Z,22.98
2023-02-21T11:45:30.767Z,23.01
2023-02-21T11:46:30.337Z,23.07
2023-02-21T11:47:30.208Z,23.11
2023-02-21T11:48:30.212Z,23.20
2023-02-21T11:49:30.243Z,23.26
2023-02-21T11:50:30.285Z,23.25
2023-02-21T11:51:30.231Z,23.28
2023-02-21T11:52:30.243Z,23.29
2023-02-21T11:53:30.272Z,23.37
2023-02-21T11:54:30.149Z,23.44
2023-02-21T11:55:30.158Z,23.34
2023-02-21T11:56:30.162Z,23.23
2023-02-21T11:57:30.173Z,23.25
2023-02-21T11:58:30.207Z,23.29
2023-02-21T11:59:30.832Z,23.37
2023-02-21T12:00:30.091Z,23.45
2023-02-21T12:01:30.118Z,23.48
2023-02-21T12:02:30.077Z,23.48
2023-02-21T12:03:30.104Z,23.51
2023-02-21T12:04:30.112Z,23.54
2023-02-21T12:05:30.063Z,23.56
2023-02-21T12:06:30.027Z,23.66
2023-02-21T12:07:30.050Z,23.71
2023-02-21T12:08:30.040Z,23.79
2023-02-21T12:09:30.091Z,23.84
2023-02-21T12:10:30.054Z,23.85
2023-02-21T12:11:29.954Z,23.86
2023-02-21T12:12:29.962Z,23.86
2023-02-21T12:13:29.978Z,23.86
2023-02-21T12:14:29.916Z,23.86
2023-02-21T12:15:29.917Z,23.85
2023-02-21T12:16:29.984Z,23.86
2023-02-21T12:17:29.944Z,23.88
2023-02-21T12:18:29.953Z,23.86
2023-02-21T12:19:29.905Z,23.89
2023-02-21T12:20:29.854Z,23.92
2023-02-21T12:21:29.854Z,23.96
2023-02-21T12:22:29.928Z,24.00
2023-02-21T12:23:29.884Z,23.96
2023-02-21T12:24:30.367Z,23.95
2023-02-21T12:25:29.842Z,23.96
2023-02-21T12:26:29.784Z,24.03
2023-02-21T12:27:29.810Z,24.06
2023-02-21T12:28:29.812Z,24.07
2023-02-21T12:29:29.768Z,24.04
2023-02-21T12:30:29.832Z,24.07
2023-02-21T12:31:29.887Z,24.09
2023-02-21T12:32:29.785Z,24.09
2023-02-21T12:33:29.757Z,24.13
2023-02-21T12:34:29.760Z,24.14
2023-02-21T12:35:29.748Z,24.19
2023-02-21T12:36:29.721Z,24.14
2023-02-21T12:37:29.665Z,24.16
2023-02-21T12:38:29.730Z,24.14
2023-02-21T12:39:29.695Z,24.11
2023-02-21T12:40:29.706Z,24.09
2023-02-21T12:41:29.642Z,24.07
2023-02-21T12:42:29.652Z,24.04
2023-02-21T12:43:29.652Z,23.92
2023-02-21T12:44:31.152Z,23.99
2023-02-21T12:45:29.636Z,23.99
2023-02-21T12:46:29.641Z,23.99
2023-02-21T12:47:29.593Z,23.99
2023-02-21T12:48:29.658Z,24.01
2023-02-21T12:49:29.596Z,24.13
2023-02-21T12:50:31.212Z,24.25
2023-02-21T12:51:29.573Z,24.38
2023-02-21T12:52:29.590Z,24.46